sensor_id;sensor_type;location;lat;lon;timestamp;pressure;altitude;pressure_sealevel;temperature;humidity
21276;BME280;36472;52.170;20.884;2023-11-21T00:00:18;99740.44;;;2.90;94.92
21276;BME280;36472;52.170;20.884;2023-11-21T00:03:07;99744.63;;;2.94;94.88
21276;BME280;36472;52.170;20.884;2023-11-21T00:05:38;99745.63;;;2.90;94.85
21276;BME280;36472;52.170;20.884;2023-11-21T00:08:09;99752.53;;;2.91;94.78
21276;BME280;36472;52.170;20.884;2023-11-21T00:10:38;99748.84;;;2.76;94.53
21276;BME280;36472;52.170;20.884;2023-11-21T00:13:07;99756.69;;;2.74;94.97
21276;BME280;36472;52.170;20.884;2023-11-21T00:15:36;99755.56;;;2.80;94.66
21276;BME280;36472;52.170;20.884;2023-11-21T00:18:05;99753.56;;;2.87;94.69
21276;BME280;36472;52.170;20.884;2023-11-21T00:20:35;99760.63;;;2.83;94.30
21276;BME280;36472;52.170;20.884;2023-11-21T00:23:05;99763.28;;;2.81;94.67
21276;BME280;36472;52.170;20.884;2023-11-21T00:25:34;99765.81;;;2.83;94.78
21276;BME280;36472;52.170;20.884;2023-11-21T00:28:03;99773.47;;;2.86;94.90
21276;BME280;36472;52.170;20.884;2023-11-21T00:30:33;99770.94;;;2.85;94.27
21276;BME280;36472;52.170;20.884;2023-11-21T00:33:02;99772.06;;;2.79;94.27
21276;BME280;36472;52.170;20.884;2023-11-21T00:35:32;99773.03;;;2.76;93.84
21276;BME280;36472;52.170;20.884;2023-11-21T00:38:01;99769.47;;;2.79;93.89
21276;BME280;36472;52.170;20.884;2023-11-21T00:40:34;99776.22;;;2.83;93.41
21276;BME280;36472;52.170;20.884;2023-11-21T00:43:03;99771.72;;;2.87;93.49
21276;BME280;36472;52.170;20.884;2023-11-21T00:45:33;99777.72;;;2.89;93.31
21276;BME280;36472;52.170;20.884;2023-11-21T00:48:04;99783.94;;;2.85;93.16
21276;BME280;36472;52.170;20.884;2023-11-21T00:50:33;99773.31;;;2.70;93.51
21276;BME280;36472;52.170;20.884;2023-11-21T00:53:02;99783.16;;;2.62;93.44
21276;BME280;36472;52.170;20.884;2023-11-21T00:55:31;99786.72;;;2.59;93.01
21276;BME280;36472;52.170;20.884;2023-11-21T00:58:01;99790.59;;;2.49;93.66
21276;BME280;36472;52.170;20.884;2023-11-21T01:00:32;99789.78;;;2.49;93.91
21276;BME280;36472;52.170;20.884;2023-11-21T01:03:01;99790.66;;;2.48;93.92
21276;BME280;36472;52.170;20.884;2023-11-21T01:05:31;99789.06;;;2.45;93.83
21276;BME280;36472;52.170;20.884;2023-11-21T01:08:00;99786.28;;;2.50;94.23
21276;BME280;36472;52.170;20.884;2023-11-21T01:10:29;99795.03;;;2.47;93.96
21276;BME280;36472;52.170;20.884;2023-11-21T01:12:58;99787.41;;;2.42;94.19
21276;BME280;36472;52.170;20.884;2023-11-21T01:15:28;99792.41;;;2.47;93.81
21276;BME280;36472;52.170;20.884;2023-11-21T01:17:57;99800.38;;;2.42;94.03
21276;BME280;36472;52.170;20.884;2023-11-21T01:20:26;99795.84;;;2.48;93.99
21276;BME280;36472;52.170;20.884;2023-11-21T01:22:55;99799.19;;;2.51;94.14
21276;BME280;36472;52.170;20.884;2023-11-21T01:25:25;99803.44;;;2.52;94.26
21276;BME280;36472;52.170;20.884;2023-11-21T01:27:54;99800.19;;;2.47;93.88
21276;BME280;36472;52.170;20.884;2023-11-21T01:30:23;99811.06;;;2.57;94.24
21276;BME280;36472;52.170;20.884;2023-11-21T01:32:54;99803.28;;;2.57;94.39
21276;BME280;36472;52.170;20.884;2023-11-21T01:35:24;99808.41;;;2.58;94.02
21276;BME280;36472;52.170;20.884;2023-11-21T01:37:53;99808.63;;;2.52;93.90
21276;BME280;36472;52.170;20.884;2023-11-21T01:40:22;99806.56;;;2.40;93.33
21276;BME280;36472;52.170;20.884;2023-11-21T01:42:53;99810.19;;;2.36;93.91
21276;BME280;36472;52.170;20.884;2023-11-21T01:45:22;99803.72;;;2.46;93.82
21276;BME280;36472;52.170;20.884;2023-11-21T01:47:54;99805.28;;;2.50;93.55
21276;BME280;36472;52.170;20.884;2023-11-21T01:50:25;99813.00;;;2.52;93.91
21276;BME280;36472;52.170;20.884;2023-11-21T01:52:54;99798.78;;;2.40;92.56
21276;BME280;36472;52.170;20.884;2023-11-21T01:55:24;99805.91;;;2.35;93.08
21276;BME280;36472;52.170;20.884;2023-11-21T01:57:56;99805.44;;;2.03;93.62
21276;BME280;36472;52.170;20.884;2023-11-21T02:00:26;99801.22;;;2.22;93.70
21276;BME280;36472;52.170;20.884;2023-11-21T02:02:58;99809.78;;;2.24;93.70
21276;BME280;36472;52.170;20.884;2023-11-21T02:05:28;99806.41;;;2.22;93.56
21276;BME280;36472;52.170;20.884;2023-11-21T02:07:58;99808.94;;;2.24;93.51
21276;BME280;36472;52.170;20.884;2023-11-21T02:10:30;99811.66;;;2.21;93.38
21276;BME280;36472;52.170;20.884;2023-11-21T02:12:59;99816.84;;;2.21;93.60
21276;BME280;36472;52.170;20.884;2023-11-21T02:15:31;99820.53;;;2.15;93.85
21276;BME280;36472;52.170;20.884;2023-11-21T02:18:01;99819.44;;;2.21;93.65
21276;BME280;36472;52.170;20.884;2023-11-21T02:20:31;99821.69;;;2.06;93.91
21276;BME280;36472;52.170;20.884;2023-11-21T02:23:05;99839.00;;;2.06;93.71
21276;BME280;36472;52.170;20.884;2023-11-21T02:25:35;99833.16;;;2.01;93.46
21276;BME280;36472;52.170;20.884;2023-11-21T02:28:05;99832.44;;;1.97;93.83
21276;BME280;36472;52.170;20.884;2023-11-21T02:30:34;99830.75;;;1.96;93.53
21276;BME280;36472;52.170;20.884;2023-11-21T02:33:04;99834.47;;;1.89;94.14
21276;BME280;36472;52.170;20.884;2023-11-21T02:35:34;99830.03;;;1.93;94.48
21276;BME280;36472;52.170;20.884;2023-11-21T02:38:04;99829.91;;;1.96;94.42
21276;BME280;36472;52.170;20.884;2023-11-21T02:40:34;99835.69;;;1.80;94.50
21276;BME280;36472;52.170;20.884;2023-11-21T02:43:03;99835.41;;;1.88;93.62
21276;BME280;36472;52.170;20.884;2023-11-21T02:45:33;99838.81;;;1.89;93.86
21276;BME280;36472;52.170;20.884;2023-11-21T02:48:03;99845.00;;;1.84;94.21
21276;BME280;36472;52.170;20.884;2023-11-21T02:50:32;99837.00;;;1.91;93.66
21276;BME280;36472;52.170;20.884;2023-11-21T02:53:03;99841.31;;;1.92;94.22
21276;BME280;36472;52.170;20.884;2023-11-21T02:55:35;99838.56;;;1.95;94.06
21276;BME280;36472;52.170;20.884;2023-11-21T02:58:04;99838.56;;;1.95;93.91
21276;BME280;36472;52.170;20.884;2023-11-21T03:00:34;99845.34;;;1.99;94.22
21276;BME280;36472;52.170;20.884;2023-11-21T03:03:03;99841.09;;;1.96;93.42
21276;BME280;36472;52.170;20.884;2023-11-21T03:05:32;99839.38;;;1.97;93.81
21276;BME280;36472;52.170;20.884;2023-11-21T03:08:03;99845.13;;;2.05;93.77
21276;BME280;36472;52.170;20.884;2023-11-21T03:10:34;99846.69;;;2.09;93.68
21276;BME280;36472;52.170;20.884;2023-11-21T03:13:03;99837.84;;;2.13;94.01
21276;BME280;36472;52.170;20.884;2023-11-21T03:15:32;99834.50;;;2.11;93.57
21276;BME280;36472;52.170;20.884;2023-11-21T03:18:03;99842.97;;;1.93;93.27
21276;BME280;36472;52.170;20.884;2023-11-21T03:20:33;99849.91;;;1.92;93.20
21276;BME280;36472;52.170;20.884;2023-11-21T03:23:02;99853.81;;;1.57;93.51
21276;BME280;36472;52.170;20.884;2023-11-21T03:25:33;99854.94;;;1.73;92.95
21276;BME280;36472;52.170;20.884;2023-11-21T03:28:03;99855.16;;;1.91;93.54
21276;BME280;36472;52.170;20.884;2023-11-21T03:30:32;99858.53;;;1.93;93.76
21276;BME280;36472;52.170;20.884;2023-11-21T03:33:01;99869.81;;;1.92;92.98
21276;BME280;36472;52.170;20.884;2023-11-21T03:35:30;99864.00;;;1.85;93.31
21276;BME280;36472;52.170;20.884;2023-11-21T03:38:00;99863.16;;;1.84;92.81
21276;BME280;36472;52.170;20.884;2023-11-21T03:40:30;99862.47;;;1.79;92.92
21276;BME280;36472;52.170;20.884;2023-11-21T03:43:03;99861.38;;;1.86;92.49
21276;BME280;36472;52.170;20.884;2023-11-21T03:45:32;99863.72;;;1.93;92.54
21276;BME280;36472;52.170;20.884;2023-11-21T03:48:01;99868.84;;;1.94;92.82
21276;BME280;36472;52.170;20.884;2023-11-21T03:50:30;99872.47;;;1.90;92.67
21276;BME280;36472;52.170;20.884;2023-11-21T03:52:59;99881.97;;;1.90;92.73
21276;BME280;36472;52.170;20.884;2023-11-21T03:55:30;99866.56;;;1.86;92.57
21276;BME280;36472;52.170;20.884;2023-11-21T03:58:00;99885.31;;;1.93;93.09
21276;BME280;36472;52.170;20.884;2023-11-21T04:00:31;99887.03;;;1.93;92.81
21276;BME280;36472;52.170;20.884;2023-11-21T04:02:59;99891.66;;;1.84;92.16
21276;BME280;36472;52.170;20.884;2023-11-21T04:05:29;99892.47;;;1.86;93.06
21276;BME280;36472;52.170;20.884;2023-11-21T04:07:58;99895.94;;;1.85;92.67
21276;BME280;36472;52.170;20.884;2023-11-21T04:10:27;99892.22;;;1.93;93.12
21276;BME280;36472;52.170;20.884;2023-11-21T04:12:56;99893.31;;;1.87;93.08
21276;BME280;36472;52.170;20.884;2023-11-21T04:15:25;99898.44;;;1.89;92.70
21276;BME280;36472;52.170;20.884;2023-11-21T04:17:56;99899.31;;;1.87;92.83
21276;BME280;36472;52.170;20.884;2023-11-21T04:20:25;99898.66;;;1.82;92.96
21276;BME280;36472;52.170;20.884;2023-11-21T04:22:54;99898.66;;;1.82;93.19
21276;BME280;36472;52.170;20.884;2023-11-21T04:25:24;99888.00;;;1.66;92.78
21276;BME280;36472;52.170;20.884;2023-11-21T04:27:53;99901.69;;;1.70;93.45
21276;BME280;36472;52.170;20.884;2023-11-21T04:30:22;99899.06;;;1.72;93.64
21276;BME280;36472;52.170;20.884;2023-11-21T04:32:51;99904.28;;;1.70;93.80
21276;BME280;36472;52.170;20.884;2023-11-21T04:35:21;99911.22;;;1.70;94.33
21276;BME280;36472;52.170;20.884;2023-11-21T04:37:50;99916.41;;;1.70;94.23
21276;BME280;36472;52.170;20.884;2023-11-21T04:40:19;99924.81;;;1.76;94.22
21276;BME280;36472;52.170;20.884;2023-11-21T04:42:48;99923.78;;;1.80;94.29
21276;BME280;36472;52.170;20.884;2023-11-21T04:45:17;99923.03;;;1.77;93.30
21276;BME280;36472;52.170;20.884;2023-11-21T04:47:46;99919.16;;;1.65;93.37
21276;BME280;36472;52.170;20.884;2023-11-21T04:50:16;99925.91;;;1.69;92.86
21276;BME280;36472;52.170;20.884;2023-11-21T04:52:46;99926.59;;;1.51;93.54
21276;BME280;36472;52.170;20.884;2023-11-21T04:55:15;99925.66;;;1.52;93.77
21276;BME280;36472;52.170;20.884;2023-11-21T04:57:44;99925.50;;;1.56;93.69
21276;BME280;36472;52.170;20.884;2023-11-21T05:00:15;99920.19;;;1.61;93.84
21276;BME280;36472;52.170;20.884;2023-11-21T05:02:44;99927.72;;;1.67;94.18
21276;BME280;36472;52.170;20.884;2023-11-21T05:05:14;99915.97;;;1.57;93.53
21276;BME280;36472;52.170;20.884;2023-11-21T05:07:45;99925.34;;;1.61;93.55
21276;BME280;36472;52.170;20.884;2023-11-21T05:10:14;99921.44;;;1.49;93.23
21276;BME280;36472;52.170;20.884;2023-11-21T05:12:44;99932.44;;;1.56;93.67
21276;BME280;36472;52.170;20.884;2023-11-21T05:15:16;99934.75;;;1.38;93.17
21276;BME280;36472;52.170;20.884;2023-11-21T05:17:45;99939.84;;;1.41;93.47
21276;BME280;36472;52.170;20.884;2023-11-21T05:20:18;99937.28;;;1.40;93.60
21276;BME280;36472;52.170;20.884;2023-11-21T05:22:50;99949.47;;;1.38;92.97
21276;BME280;36472;52.170;20.884;2023-11-21T05:25:19;99949.72;;;1.30;93.52
21276;BME280;36472;52.170;20.884;2023-11-21T05:27:48;99946.75;;;1.41;93.53
21276;BME280;36472;52.170;20.884;2023-11-21T05:30:17;99955.97;;;1.49;93.46
21276;BME280;36472;52.170;20.884;2023-11-21T05:32:46;99957.81;;;1.46;92.86
21276;BME280;36472;52.170;20.884;2023-11-21T05:35:17;99966.41;;;1.46;93.10
21276;BME280;36472;52.170;20.884;2023-11-21T05:37:46;99966.13;;;1.56;93.39
21276;BME280;36472;52.170;20.884;2023-11-21T05:40:17;99973.06;;;1.54;93.71
21276;BME280;36472;52.170;20.884;2023-11-21T05:42:46;99974.66;;;1.58;93.59
21276;BME280;36472;52.170;20.884;2023-11-21T05:45:15;99969.69;;;1.52;93.06
21276;BME280;36472;52.170;20.884;2023-11-21T05:47:47;99972.31;;;1.50;93.18
21276;BME280;36472;52.170;20.884;2023-11-21T05:50:17;99970.38;;;1.57;92.87
21276;BME280;36472;52.170;20.884;2023-11-21T05:52:47;99958.47;;;1.26;92.69
21276;BME280;36472;52.170;20.884;2023-11-21T05:55:18;99968.16;;;1.46;92.44
21276;BME280;36472;52.170;20.884;2023-11-21T05:57:48;99976.88;;;1.43;92.89
21276;BME280;36472;52.170;20.884;2023-11-21T06:00:18;99978.25;;;1.54;91.95
21276;BME280;36472;52.170;20.884;2023-11-21T06:02:50;99979.69;;;1.37;92.20
21276;BME280;36472;52.170;20.884;2023-11-21T06:05:23;99985.16;;;1.28;91.94
21276;BME280;36472;52.170;20.884;2023-11-21T06:07:55;99980.56;;;1.36;92.17
21276;BME280;36472;52.170;20.884;2023-11-21T06:10:28;99995.06;;;1.42;91.86
21276;BME280;36472;52.170;20.884;2023-11-21T06:12:57;99996.25;;;1.06;92.74
21276;BME280;36472;52.170;20.884;2023-11-21T06:15:31;100003.00;;;1.10;92.66
21276;BME280;36472;52.170;20.884;2023-11-21T06:17:59;100003.66;;;1.17;92.42
21276;BME280;36472;52.170;20.884;2023-11-21T06:20:29;100016.34;;;1.25;92.78
21276;BME280;36472;52.170;20.884;2023-11-21T06:22:57;100018.94;;;1.25;92.98
21276;BME280;36472;52.170;20.884;2023-11-21T06:25:33;100021.91;;;1.39;93.08
21276;BME280;36472;52.170;20.884;2023-11-21T06:28:04;100017.69;;;1.37;92.30
21276;BME280;36472;52.170;20.884;2023-11-21T06:30:33;100019.47;;;1.35;92.75
21276;BME280;36472;52.170;20.884;2023-11-21T06:33:02;100019.63;;;1.30;92.12
21276;BME280;36472;52.170;20.884;2023-11-21T06:35:31;100018.94;;;1.25;92.05
21276;BME280;36472;52.170;20.884;2023-11-21T06:38:04;100019.38;;;1.38;92.44
21276;BME280;36472;52.170;20.884;2023-11-21T06:40:35;100024.25;;;1.47;93.06
21276;BME280;36472;52.170;20.884;2023-11-21T06:43:04;100021.41;;;1.55;92.03
21276;BME280;36472;52.170;20.884;2023-11-21T06:45:35;100031.31;;;1.67;92.09
21276;BME280;36472;52.170;20.884;2023-11-21T06:48:04;100029.41;;;1.72;92.32
21276;BME280;36472;52.170;20.884;2023-11-21T06:50:33;100036.94;;;1.80;91.51
21276;BME280;36472;52.170;20.884;2023-11-21T06:53:02;100039.44;;;1.83;92.18
21276;BME280;36472;52.170;20.884;2023-11-21T06:55:36;100044.88;;;1.75;91.14
21276;BME280;36472;52.170;20.884;2023-11-21T06:58:05;100048.66;;;1.65;90.76
21276;BME280;36472;52.170;20.884;2023-11-21T07:00:34;100054.81;;;1.62;90.22
21276;BME280;36472;52.170;20.884;2023-11-21T07:03:03;100061.72;;;1.62;91.65
21276;BME280;36472;52.170;20.884;2023-11-21T07:05:32;100058.28;;;1.61;91.96
21276;BME280;36472;52.170;20.884;2023-11-21T07:08:01;100065.28;;;1.59;91.71
21276;BME280;36472;52.170;20.884;2023-11-21T07:10:32;100068.97;;;1.52;91.37
21276;BME280;36472;52.170;20.884;2023-11-21T07:13:04;100071.63;;;1.51;91.49
21276;BME280;36472;52.170;20.884;2023-11-21T07:15:33;100073.97;;;1.57;91.27
21276;BME280;36472;52.170;20.884;2023-11-21T07:18:02;100070.41;;;1.61;90.91
21276;BME280;36472;52.170;20.884;2023-11-21T07:20:31;100071.56;;;1.52;90.71
21276;BME280;36472;52.170;20.884;2023-11-21T07:23:00;100071.75;;;1.46;90.40
21276;BME280;36472;52.170;20.884;2023-11-21T07:25:30;100075.50;;;1.37;90.84
21276;BME280;36472;52.170;20.884;2023-11-21T07:27:59;100073.00;;;1.34;90.98
21276;BME280;36472;52.170;20.884;2023-11-21T07:30:30;100076.16;;;1.44;91.22
21276;BME280;36472;52.170;20.884;2023-11-21T07:32:59;100075.00;;;1.53;91.02
21276;BME280;36472;52.170;20.884;2023-11-21T07:35:28;100075.44;;;1.39;91.06
21276;BME280;36472;52.170;20.884;2023-11-21T07:37:57;100083.31;;;1.36;91.05
21276;BME280;36472;52.170;20.884;2023-11-21T07:40:26;100076.66;;;1.28;90.65
21276;BME280;36472;52.170;20.884;2023-11-21T07:42:58;100082.66;;;1.29;90.75
21276;BME280;36472;52.170;20.884;2023-11-21T07:45:30;100088.50;;;1.36;91.42
21276;BME280;36472;52.170;20.884;2023-11-21T07:47:59;100084.25;;;1.33;91.76
21276;BME280;36472;52.170;20.884;2023-11-21T07:50:28;100090.81;;;1.43;91.54
21276;BME280;36472;52.170;20.884;2023-11-21T07:52:58;100086.25;;;1.52;91.21
21276;BME280;36472;52.170;20.884;2023-11-21T07:55:27;100081.97;;;1.51;90.92
21276;BME280;36472;52.170;20.884;2023-11-21T07:57:59;100087.16;;;1.51;91.21
21276;BME280;36472;52.170;20.884;2023-11-21T08:00:30;100097.09;;;1.36;91.75
21276;BME280;36472;52.170;20.884;2023-11-21T08:02:59;100100.16;;;1.49;91.54
21276;BME280;36472;52.170;20.884;2023-11-21T08:05:28;100092.16;;;1.55;91.13
21276;BME280;36472;52.170;20.884;2023-11-21T08:08:04;100085.22;;;1.57;91.10
21276;BME280;36472;52.170;20.884;2023-11-21T08:10:34;100092.13;;;1.57;90.89
21276;BME280;36472;52.170;20.884;2023-11-21T08:13:03;100094.94;;;1.51;90.83
21276;BME280;36472;52.170;20.884;2023-11-21T08:15:33;100095.63;;;1.56;90.74
21276;BME280;36472;52.170;20.884;2023-11-21T08:18:04;100096.38;;;1.59;91.68
21276;BME280;36472;52.170;20.884;2023-11-21T08:20:35;100102.25;;;1.64;91.15
21276;BME280;36472;52.170;20.884;2023-11-21T08:23:06;100108.06;;;1.71;90.79
21276;BME280;36472;52.170;20.884;2023-11-21T08:25:35;100090.16;;;1.63;90.90
21276;BME280;36472;52.170;20.884;2023-11-21T08:28:04;100112.31;;;1.72;91.00
21276;BME280;36472;52.170;20.884;2023-11-21T08:30:35;100114.91;;;1.72;90.84
21276;BME280;36472;52.170;20.884;2023-11-21T08:33:03;100119.78;;;1.56;90.32
21276;BME280;36472;52.170;20.884;2023-11-21T08:35:32;100120.97;;;1.46;90.52
21276;BME280;36472;52.170;20.884;2023-11-21T08:38:02;100127.53;;;1.56;90.68
21276;BME280;36472;52.170;20.884;2023-11-21T08:40:31;100130.03;;;1.59;90.59
21276;BME280;36472;52.170;20.884;2023-11-21T08:43:00;100131.44;;;1.70;90.57
21276;BME280;36472;52.170;20.884;2023-11-21T08:45:32;100121.75;;;1.48;89.82
21276;BME280;36472;52.170;20.884;2023-11-21T08:48:03;100132.56;;;1.61;89.83
21276;BME280;36472;52.170;20.884;2023-11-21T08:50:33;100134.44;;;1.57;90.62
21276;BME280;36472;52.170;20.884;2023-11-21T08:53:02;100132.56;;;1.61;90.09
21276;BME280;36472;52.170;20.884;2023-11-21T08:55:31;100130.97;;;1.57;90.04
21276;BME280;36472;52.170;20.884;2023-11-21T08:58:05;100144.72;;;1.59;90.46
21276;BME280;36472;52.170;20.884;2023-11-21T09:00:35;100145.31;;;1.40;91.12
21276;BME280;36472;52.170;20.884;2023-11-21T09:03:05;100148.00;;;1.37;91.23
21276;BME280;36472;52.170;20.884;2023-11-21T09:05:39;100157.59;;;1.34;91.16
21276;BME280;36472;52.170;20.884;2023-11-21T09:08:07;100154.22;;;1.32;91.36
21276;BME280;36472;52.170;20.884;2023-11-21T09:10:37;100160.56;;;1.21;91.32
21276;BME280;36472;52.170;20.884;2023-11-21T09:13:07;100161.09;;;1.04;92.11
21276;BME280;36472;52.170;20.884;2023-11-21T09:15:37;100167.06;;;1.06;92.63
21276;BME280;36472;52.170;20.884;2023-11-21T09:18:07;100164.47;;;1.06;92.94
21276;BME280;36472;52.170;20.884;2023-11-21T09:20:36;100162.59;;;1.11;93.62
21276;BME280;36472;52.170;20.884;2023-11-21T09:23:05;100158.66;;;0.98;93.97
21276;BME280;36472;52.170;20.884;2023-11-21T09:25:35;100161.78;;;1.09;93.73
21276;BME280;36472;52.170;20.884;2023-11-21T09:28:05;100169.22;;;1.20;93.73
21276;BME280;36472;52.170;20.884;2023-11-21T09:30:36;100170.88;;;1.23;94.14
21276;BME280;36472;52.170;20.884;2023-11-21T09:33:07;100168.94;;;1.29;93.11
21276;BME280;36472;52.170;20.884;2023-11-21T09:35:39;100167.00;;;1.36;92.97
21276;BME280;36472;52.170;20.884;2023-11-21T09:38:07;100167.09;;;1.33;93.40
21276;BME280;36472;52.170;20.884;2023-11-21T09:40:39;100158.34;;;1.37;93.16
21276;BME280;36472;52.170;20.884;2023-11-21T09:43:15;100156.94;;;1.27;92.75
21276;BME280;36472;52.170;20.884;2023-11-21T09:45:48;100157.53;;;1.37;92.82
21276;BME280;36472;52.170;20.884;2023-11-21T09:48:24;100156.38;;;1.45;93.02
21276;BME280;36472;52.170;20.884;2023-11-21T09:50:54;100155.25;;;1.54;93.25
21276;BME280;36472;52.170;20.884;2023-11-21T09:53:25;100157.66;;;1.59;92.97
21276;BME280;36472;52.170;20.884;2023-11-21T09:55:57;100161.72;;;1.67;92.23
21276;BME280;36472;52.170;20.884;2023-11-21T09:58:28;100158.09;;;1.73;92.51
21276;BME280;36472;52.170;20.884;2023-11-21T10:01:01;100166.03;;;1.67;92.53
21276;BME280;36472;52.170;20.884;2023-11-21T10:03:35;100169.16;;;1.50;91.61
21276;BME280;36472;52.170;20.884;2023-11-21T10:06:07;100172.38;;;1.58;92.19
21276;BME280;36472;52.170;20.884;2023-11-21T10:08:37;100184.78;;;1.75;92.62
21276;BME280;36472;52.170;20.884;2023-11-21T10:11:20;100174.50;;;1.72;91.81
21276;BME280;36472;52.170;20.884;2023-11-21T10:13:54;100184.78;;;1.75;92.69
21276;BME280;36472;52.170;20.884;2023-11-21T10:16:27;100183.41;;;1.92;92.47
21276;BME280;36472;52.170;20.884;2023-11-21T10:18:59;100183.09;;;2.01;92.31
21276;BME280;36472;52.170;20.884;2023-11-21T10:21:39;100177.84;;;2.02;91.76
21276;BME280;36472;52.170;20.884;2023-11-21T10:24:08;100176.09;;;2.03;90.94
21276;BME280;36472;52.170;20.884;2023-11-21T10:26:37;100163.34;;;1.97;90.93
21276;BME280;36472;52.170;20.884;2023-11-21T10:29:19;100177.16;;;1.97;90.92
21276;BME280;36472;52.170;20.884;2023-11-21T10:31:50;100179.28;;;2.11;90.90
21276;BME280;36472;52.170;20.884;2023-11-21T10:34:23;100166.63;;;2.02;90.22
21276;BME280;36472;52.170;20.884;2023-11-21T10:36:55;100180.19;;;2.10;91.09
21276;BME280;36472;52.170;20.884;2023-11-21T10:39:26;100181.13;;;2.08;91.24
21276;BME280;36472;52.170;20.884;2023-11-21T10:41:59;100192.25;;;2.11;90.40
21276;BME280;36472;52.170;20.884;2023-11-21T10:44:28;100187.00;;;2.13;91.00
21276;BME280;36472;52.170;20.884;2023-11-21T10:46:57;100193.72;;;2.18;91.64
21276;BME280;36472;52.170;20.884;2023-11-21T10:49:30;100193.69;;;2.20;91.79
21276;BME280;36472;52.170;20.884;2023-11-21T10:52:00;100193.22;;;2.09;90.03
21276;BME280;36472;52.170;20.884;2023-11-21T10:54:29;100194.03;;;2.09;89.94
21276;BME280;36472;52.170;20.884;2023-11-21T10:57:00;100201.22;;;2.01;90.16
21276;BME280;36472;52.170;20.884;2023-11-21T10:59:30;100184.94;;;1.97;90.56
21276;BME280;36472;52.170;20.884;2023-11-21T11:04:52;100203.22;;;1.93;90.08
21276;BME280;36472;52.170;20.884;2023-11-21T11:07:27;100199.03;;;1.89;89.93
21276;BME280;36472;52.170;20.884;2023-11-21T11:09:59;100202.00;;;1.78;89.93
21276;BME280;36472;52.170;20.884;2023-11-21T11:12:28;100195.75;;;1.83;90.23
21276;BME280;36472;52.170;20.884;2023-11-21T11:15:00;100199.19;;;1.84;90.26
21276;BME280;36472;52.170;20.884;2023-11-21T11:17:31;100205.41;;;1.78;90.41
21276;BME280;36472;52.170;20.884;2023-11-21T11:20:03;100201.28;;;1.73;90.45
21276;BME280;36472;52.170;20.884;2023-11-21T11:22:41;100192.59;;;1.74;90.23
21276;BME280;36472;52.170;20.884;2023-11-21T11:25:35;100203.72;;;1.77;90.57
21276;BME280;36472;52.170;20.884;2023-11-21T11:28:11;100213.91;;;1.83;90.21
21276;BME280;36472;52.170;20.884;2023-11-21T11:30:53;100207.16;;;1.78;90.78
21276;BME280;36472;52.170;20.884;2023-11-21T11:33:39;100215.13;;;1.72;90.39
21276;BME280;36472;52.170;20.884;2023-11-21T11:36:23;100206.78;;;1.62;90.69
21276;BME280;36472;52.170;20.884;2023-11-21T11:38:54;100219.66;;;1.65;89.55
21276;BME280;36472;52.170;20.884;2023-11-21T11:41:29;100220.50;;;1.65;89.87
21276;BME280;36472;52.170;20.884;2023-11-21T11:44:01;100218.09;;;1.59;91.09
21276;BME280;36472;52.170;20.884;2023-11-21T11:46:43;100221.63;;;1.57;91.09
21276;BME280;36472;52.170;20.884;2023-11-21T11:49:24;100213.56;;;1.38;90.17
21276;BME280;36472;52.170;20.884;2023-11-21T11:52:38;100224.50;;;1.47;90.33
21276;BME280;36472;52.170;20.884;2023-11-21T11:55:10;100217.34;;;1.27;90.14
21276;BME280;36472;52.170;20.884;2023-11-21T11:57:40;100214.50;;;1.37;90.30
21276;BME280;36472;52.170;20.884;2023-11-21T12:00:16;100225.31;;;1.49;90.50
21276;BME280;36472;52.170;20.884;2023-11-21T12:02:48;100218.53;;;1.45;90.35
21276;BME280;36472;52.170;20.884;2023-11-21T12:05:20;100220.13;;;1.49;90.32
21276;BME280;36472;52.170;20.884;2023-11-21T12:07:53;100230.41;;;1.53;90.34
21276;BME280;36472;52.170;20.884;2023-11-21T12:10:26;100225.22;;;1.53;89.36
21276;BME280;36472;52.170;20.884;2023-11-21T12:12:58;100219.66;;;1.37;89.35
21276;BME280;36472;52.170;20.884;2023-11-21T12:15:28;100226.34;;;1.44;89.52
21276;BME280;36472;52.170;20.884;2023-11-21T12:17:59;100236.66;;;1.45;89.81
21276;BME280;36472;52.170;20.884;2023-11-21T12:20:29;100236.53;;;1.48;90.34
21276;BME280;36472;52.170;20.884;2023-11-21T12:23:00;100240.66;;;1.56;89.99
21276;BME280;36472;52.170;20.884;2023-11-21T12:25:31;100237.78;;;1.65;89.52
21276;BME280;36472;52.170;20.884;2023-11-21T12:28:02;100240.13;;;1.44;89.22
21276;BME280;36472;52.170;20.884;2023-11-21T12:30:34;100234.16;;;1.42;89.39
21276;BME280;36472;52.170;20.884;2023-11-21T12:33:04;100244.31;;;1.48;89.33
21276;BME280;36472;52.170;20.884;2023-11-21T12:35:35;100245.34;;;1.43;89.69
21276;BME280;36472;52.170;20.884;2023-11-21T12:38:06;100241.56;;;1.55;89.06
21276;BME280;36472;52.170;20.884;2023-11-21T12:40:37;100244.47;;;1.44;89.86
21276;BME280;36472;52.170;20.884;2023-11-21T12:43:07;100237.47;;;1.47;89.37
21276;BME280;36472;52.170;20.884;2023-11-21T12:45:37;100253.78;;;1.49;88.94
21276;BME280;36472;52.170;20.884;2023-11-21T12:48:06;100248.41;;;1.57;88.70
21276;BME280;36472;52.170;20.884;2023-11-21T12:50:38;100256.13;;;1.29;90.01
21276;BME280;36472;52.170;20.884;2023-11-21T12:53:11;100255.06;;;1.36;89.82
21276;BME280;36472;52.170;20.884;2023-11-21T12:55:41;100263.97;;;1.56;89.26
21276;BME280;36472;52.170;20.884;2023-11-21T12:58:11;100257.06;;;1.56;89.29
21276;BME280;36472;52.170;20.884;2023-11-21T13:00:44;100264.81;;;1.56;89.82
21276;BME280;36472;52.170;20.884;2023-11-21T13:03:16;100256.31;;;1.53;90.02
21276;BME280;36472;52.170;20.884;2023-11-21T13:05:48;100262.94;;;1.61;89.84
21276;BME280;36472;52.170;20.884;2023-11-21T13:08:24;100269.53;;;1.72;90.21
21276;BME280;36472;52.170;20.884;2023-11-21T13:10:56;100274.22;;;1.59;88.73
21276;BME280;36472;52.170;20.884;2023-11-21T13:13:28;100274.19;;;1.60;88.53
21276;BME280;36472;52.170;20.884;2023-11-21T13:16:01;100258.69;;;1.30;87.93